Time;durP1;ratioP1;P1;durP2;ratioP2;P2;SDS_P1;SDS_P2;PMS_P1;PMS_P2;Temp;Humidity;BMP_temperature;BMP_pressure;BME280_temperature;BME280_humidity;BME280_pressure;Samples;Min_cycle;Max_cycle;Signal;HPM_P1;HPM_P2
2022/08/30 00:03:20;;;;;;;1.55;1.40;;;;;;;19.55;53.56;100403.72;5051408;28;20047;-60
2022/08/30 00:05:48;;;;;;;2.00;1.48;;;;;;;19.51;53.76;100403.97;5051429;28;20045;-59
2022/08/30 00:08:15;;;;;;;1.58;1.40;;;;;;;19.49;53.70;100405.94;5049881;28;20041;-60
2022/08/30 00:10:43;;;;;;;1.92;1.42;;;;;;;19.44;53.49;100397.44;5050359;28;20497;-59
2022/08/30 00:13:12;;;;;;;3.35;1.50;;;;;;;19.40;53.62;100399.53;5050200;28;20045;-61
2022/08/30 00:15:40;;;;;;;2.10;1.52;;;;;;;19.35;53.67;100393.75;5051414;28;20060;-60
2022/08/30 00:18:07;;;;;;;1.27;1.15;;;;;;;19.34;53.79;100402.75;5051120;28;20061;-61
2022/08/30 00:20:35;;;;;;;1.85;1.40;;;;;;;19.31;54.19;100396.78;5051458;28;20049;-61
2022/08/30 00:23:04;;;;;;;2.28;1.45;;;;;;;19.28;53.94;100405.91;5050174;28;20525;-62
2022/08/30 00:25:31;;;;;;;3.38;1.17;;;;;;;19.27;53.73;100397.06;5050057;28;20048;-59
2022/08/30 00:27:58;;;;;;;1.63;1.13;;;;;;;19.25;53.89;100406.19;5051319;28;20439;-61
2022/08/30 00:30:25;;;;;;;2.15;1.40;;;;;;;19.22;54.16;100404.59;5049748;28;20050;-62
2022/08/30 00:32:52;;;;;;;3.13;1.20;;;;;;;19.21;54.08;100400.22;5050265;28;20510;-59
2022/08/30 00:35:20;;;;;;;2.72;1.38;;;;;;;19.20;54.30;100405.69;5051156;28;20140;-61
2022/08/30 00:37:48;;;;;;;1.30;1.20;;;;;;;19.19;54.24;100399.53;5050059;28;20084;-61
2022/08/30 00:40:19;;;;;;;3.08;1.20;;;;;;;19.17;54.14;100401.47;5050928;28;20057;-59
2022/08/30 00:42:58;;;;;;;1.92;1.15;;;;;;;19.18;54.05;100399.66;5050990;28;20045;-62
2022/08/30 00:45:31;;;;;;;2.22;1.30;;;;;;;19.14;54.56;100399.91;5050136;28;20115;-59
2022/08/30 00:47:58;;;;;;;2.92;1.20;;;;;;;19.12;54.05;100401.88;5051124;28;20055;-59
2022/08/30 00:50:30;;;;;;;6.25;1.13;;;;;;;19.09;54.62;100404.78;5050664;28;20053;-62
2022/08/30 00:53:00;;;;;;;1.63;1.00;;;;;;;19.07;54.63;100397.88;5049803;28;20053;-59
2022/08/30 00:55:28;;;;;;;3.83;1.00;;;;;;;19.07;54.46;100396.06;5049675;28;20055;-59
2022/08/30 00:58:00;;;;;;;1.23;0.90;;;;;;;19.05;54.65;100399.78;5049885;28;20132;-60
2022/08/30 01:00:30;;;;;;;2.35;1.08;;;;;;;19.04;54.52;100396.28;5049754;28;20049;-63
2022/08/30 01:02:57;;;;;;;4.20;1.20;;;;;;;19.04;54.47;100401.63;5049701;28;20215;-60
2022/08/30 01:05:24;;;;;;;2.65;1.20;;;;;;;19.04;54.65;100392.75;5050712;28;20092;-59
2022/08/30 01:07:51;;;;;;;2.65;1.10;;;;;;;19.01;54.38;100397.38;5050683;28;20059;-62
2022/08/30 01:10:18;;;;;;;2.42;1.20;;;;;;;19.01;54.56;100396.53;5050589;28;20123;-60
2022/08/30 01:12:46;;;;;;;1.55;1.20;;;;;;;19.00;54.83;100400.19;5050699;28;20048;-60
2022/08/30 01:15:14;;;;;;;2.40;1.20;;;;;;;18.98;54.92;100396.78;5049568;28;20064;-59
2022/08/30 01:17:43;;;;;;;2.00;1.20;;;;;;;18.97;54.52;100395.09;5050720;28;20115;-61
2022/08/30 01:20:13;;;;;;;2.00;1.33;;;;;;;18.95;54.93;100394.38;5050596;28;20124;-60
2022/08/30 01:22:49;;;;;;;3.40;1.38;;;;;;;18.89;55.03;100388.53;5049463;28;20147;-60
2022/08/30 01:25:29;;;;;;;2.08;1.20;;;;;;;18.89;54.77;100393.88;5050551;28;20064;-61
2022/08/30 01:28:00;;;;;;;1.45;1.13;;;;;;;18.86;55.13;100394.16;5050784;28;20507;-61
2022/08/30 01:30:28;;;;;;;2.40;1.42;;;;;;;18.84;54.76;100393.41;5050310;28;20563;-59
2022/08/30 01:33:02;;;;;;;3.10;1.27;;;;;;;18.81;55.01;100391.03;5049013;28;20045;-59
2022/08/30 01:35:55;;;;;;;1.95;1.33;;;;;;;18.77;55.54;100386.06;5050260;28;20592;-59
2022/08/30 01:38:44;;;;;;;2.58;1.10;;;;;;;18.75;55.05;100399.50;5042304;28;20052;-61
2022/08/30 01:41:36;;;;;;;2.92;1.20;;;;;;;18.71;55.71;100395.41;5050197;28;20052;-60
2022/08/30 01:44:07;;;;;;;1.33;1.15;;;;;;;18.69;55.62;100395.53;5050465;28;20092;-60
2022/08/30 01:46:44;;;;;;;2.33;1.33;;;;;;;18.67;55.61;100400.16;5049937;28;20052;-62
2022/08/30 01:49:14;;;;;;;3.10;1.33;;;;;;;18.65;55.84;100401.25;5054344;28;20053;-59
2022/08/30 01:51:41;;;;;;;2.75;1.25;;;;;;;18.64;55.61;100410.22;5054465;28;20049;-58
2022/08/30 01:54:09;;;;;;;2.13;1.55;;;;;;;18.60;55.71;100399.78;5054313;28;20080;-60
2022/08/30 01:56:36;;;;;;;2.22;1.42;;;;;;;18.60;55.77;100409.59;5054384;28;20048;-59
2022/08/30 01:59:03;;;;;;;2.10;1.35;;;;;;;18.57;55.68;100405.38;5053838;28;20049;-60
2022/08/30 02:01:34;;;;;;;2.95;1.65;;;;;;;18.56;56.08;100413.50;5054139;28;20051;-62
2022/08/30 02:04:02;;;;;;;4.53;1.73;;;;;;;18.54;55.89;100405.59;5052844;28;20055;-59
2022/08/30 02:06:29;;;;;;;2.17;1.50;;;;;;;18.52;55.77;100406.69;5053130;28;20053;-60
2022/08/30 02:08:55;;;;;;;3.42;1.35;;;;;;;18.50;56.20;100406.81;5054005;28;20041;-60
2022/08/30 02:11:22;;;;;;;3.30;1.70;;;;;;;18.47;55.95;100404.44;5053963;28;20428;-60
2022/08/30 02:13:49;;;;;;;2.08;1.38;;;;;;;18.44;56.15;100400.19;5053803;28;20064;-62
2022/08/30 02:16:21;;;;;;;1.35;1.23;;;;;;;18.41;56.57;100407.56;5053849;28;20067;-60
2022/08/30 02:18:49;;;;;;;2.95;1.63;;;;;;;18.41;56.28;100410.22;5052403;28;20538;-61
2022/08/30 02:21:16;;;;;;;3.70;1.30;;;;;;;18.40;56.36;100405.88;5052614;28;20063;-59
2022/08/30 02:23:43;;;;;;;2.65;1.85;;;;;;;18.39;56.60;100407.69;5053655;28;20045;-62
2022/08/30 02:26:11;;;;;;;3.10;1.60;;;;;;;18.38;56.69;100402.50;5053815;28;20440;-60
2022/08/30 02:28:38;;;;;;;2.25;1.60;;;;;;;18.38;56.63;100406.00;5053434;28;20048;-59
2022/08/30 02:31:16;;;;;;;1.55;1.35;;;;;;;18.38;56.77;100410.50;5052211;28;20091;-60
2022/08/30 02:33:46;;;;;;;3.92;1.55;;;;;;;18.36;56.94;100414.09;5053737;28;20044;-60
2022/08/30 02:36:13;;;;;;;3.30;1.58;;;;;;;18.36;56.72;100413.28;5053473;28;20048;-60
2022/08/30 02:38:39;;;;;;;1.65;1.55;;;;;;;18.36;56.78;100405.28;5053083;28;20051;-59
2022/08/30 02:41:06;;;;;;;2.08;1.52;;;;;;;18.35;56.77;100408.91;5052950;28;20060;-60
2022/08/30 02:43:32;;;;;;;3.03;1.65;;;;;;;18.33;56.90;100419.72;5053095;28;20045;-59
2022/08/30 02:45:59;;;;;;;1.48;1.20;;;;;;;18.31;57.11;100416.28;5052940;28;20057;-60
2022/08/30 02:48:26;;;;;;;3.58;1.70;;;;;;;18.30;56.79;100417.28;5052765;28;20264;-60
2022/08/30 02:50:53;;;;;;;4.20;1.85;;;;;;;18.26;57.19;100415.81;5052812;28;20503;-59
2022/08/30 02:53:20;;;;;;;2.00;1.40;;;;;;;18.25;56.98;100413.28;5053082;28;20053;-60
2022/08/30 02:55:48;;;;;;;1.77;1.55;;;;;;;18.23;57.49;100416.06;5051606;28;20057;-59
2022/08/30 02:58:15;;;;;;;2.90;1.73;;;;;;;18.20;57.54;100414.47;5051217;28;20045;-59
2022/08/30 03:00:41;;;;;;;2.20;1.63;;;;;;;18.20;57.20;100405.63;5052759;28;20413;-62
2022/08/30 03:03:09;;;;;;;2.70;1.50;;;;;;;18.18;57.24;100407.59;5051381;28;20493;-59
2022/08/30 03:05:36;;;;;;;1.58;1.42;;;;;;;18.17;57.55;100405.91;5053093;28;20766;-60
2022/08/30 03:08:05;;;;;;;1.48;1.38;;;;;;;18.14;57.52;100407.00;5052803;28;20041;-60
2022/08/30 03:10:32;;;;;;;2.80;1.88;;;;;;;18.13;57.70;100401.78;5051268;28;20049;-60
2022/08/30 03:12:59;;;;;;;2.42;1.50;;;;;;;18.12;57.43;100406.25;5052467;28;20386;-59
2022/08/30 03:15:26;;;;;;;3.08;1.70;;;;;;;18.10;57.63;100403.69;5051168;28;20136;-60
2022/08/30 03:17:54;;;;;;;2.03;1.65;;;;;;;18.08;57.78;100410.97;5052591;28;20053;-61
2022/08/30 03:20:21;;;;;;;1.67;1.55;;;;;;;18.07;57.79;100403.06;5051085;28;20087;-59
2022/08/30 03:22:48;;;;;;;2.53;1.70;;;;;;;18.06;58.05;100406.72;5052393;28;20048;-61
2022/08/30 03:25:16;;;;;;;1.92;1.40;;;;;;;18.04;57.82;100398.84;5050946;28;20059;-59
2022/08/30 03:27:42;;;;;;;2.53;1.63;;;;;;;18.03;57.95;100405.13;5051000;28;20053;-62
2022/08/30 03:30:10;;;;;;;3.28;1.80;;;;;;;18.01;58.19;100401.72;5051883;28;20045;-59
2022/08/30 03:32:38;;;;;;;3.75;1.50;;;;;;;18.00;58.24;100408.03;5052102;28;20386;-59
2022/08/30 03:35:06;;;;;;;2.05;1.70;;;;;;;18.00;58.00;100408.03;5052229;28;20081;-59
2022/08/30 03:37:34;;;;;;;2.88;1.70;;;;;;;18.01;58.15;100403.56;5052136;28;20075;-59
2022/08/30 03:40:02;;;;;;;1.98;1.40;;;;;;;17.99;58.31;100406.34;5051717;28;20059;-63
2022/08/30 03:42:31;;;;;;;2.15;1.52;;;;;;;17.98;58.18;100404.63;5050838;28;20122;-59
2022/08/30 03:45:00;;;;;;;2.40;1.42;;;;;;;17.97;58.35;100397.59;5052100;28;20053;-59
2022/08/30 03:47:27;;;;;;;2.20;1.60;;;;;;;17.95;58.23;100402.22;5050850;28;20045;-62
2022/08/30 03:49:55;;;;;;;4.90;1.42;;;;;;;17.93;58.24;100401.47;5051482;28;20049;-59
2022/08/30 03:52:22;;;;;;;2.22;1.33;;;;;;;17.92;58.01;100402.44;5050612;28;20405;-59
2022/08/30 03:54:48;;;;;;;3.50;1.33;;;;;;;17.89;58.10;100397.34;5051714;28;20064;-59
2022/08/30 03:57:15;;;;;;;2.72;1.40;;;;;;;17.88;58.24;100401.00;5050611;28;20048;-60
2022/08/30 03:59:49;;;;;;;2.78;1.50;;;;;;;17.86;58.22;100405.59;5051364;28;20493;-62
2022/08/30 04:02:16;;;;;;;1.88;1.67;;;;;;;17.84;58.16;100403.06;5051467;28;20486;-60
2022/08/30 04:04:42;;;;;;;2.85;1.77;;;;;;;17.82;58.40;100405.84;5051710;28;20060;-59
2022/08/30 04:07:09;;;;;;;2.78;1.80;;;;;;;17.79;58.39;100408.72;5051335;28;20048;-61
2022/08/30 04:09:36;;;;;;;2.17;1.88;;;;;;;17.78;58.29;100403.50;5050825;28;20053;-59
2022/08/30 04:12:03;;;;;;;3.95;1.90;;;;;;;17.75;58.26;100403.78;5050323;28;20144;-62
2022/08/30 04:14:30;;;;;;;3.22;2.15;;;;;;;17.73;58.60;100403.88;5051438;28;20076;-61
2022/08/30 04:16:56;;;;;;;3.03;1.95;;;;;;;17.70;58.37;100406.78;5051545;28;20053;-59
2022/08/30 04:19:23;;;;;;;3.17;1.75;;;;;;;17.68;58.66;100401.56;5051159;28;20049;-61
2022/08/30 04:21:50;;;;;;;1.90;1.70;;;;;;;17.67;58.39;100404.34;5051145;28;20155;-59
2022/08/30 04:24:17;;;;;;;2.45;1.83;;;;;;;17.65;58.54;100407.13;5051424;28;20409;-60
2022/08/30 04:26:43;;;;;;;2.28;2.10;;;;;;;17.64;58.57;100401.94;5051236;28;20387;-63
2022/08/30 04:29:15;;;;;;;3.75;1.80;;;;;;;17.62;58.91;100409.16;5051032;28;20053;-59
2022/08/30 04:31:43;;;;;;;3.67;2.13;;;;;;;17.62;58.72;100411.84;5049935;28;20057;-61
2022/08/30 04:34:11;;;;;;;3.15;2.28;;;;;;;17.61;58.89;100412.81;5050996;28;20049;-61
2022/08/30 04:36:38;;;;;;;4.45;2.30;;;;;;;17.60;59.00;100417.28;5049719;28;20049;-60
2022/08/30 04:39:05;;;;;;;3.65;2.05;;;;;;;17.59;59.26;100420.91;5050951;28;20565;-60
2022/08/30 04:41:32;;;;;;;4.38;2.47;;;;;;;17.58;59.01;100414.72;5050782;28;20796;-61
2022/08/30 04:44:02;;;;;;;3.28;2.03;;;;;;;17.56;59.25;100411.34;5050937;28;20493;-59
2022/08/30 04:46:29;;;;;;;3.05;2.10;;;;;;;17.56;59.17;100416.66;5049591;28;20128;-60
2022/08/30 04:48:56;;;;;;;3.35;2.10;;;;;;;17.56;59.23;100419.34;5049377;28;20056;-60
2022/08/30 04:51:23;;;;;;;3.05;2.00;;;;;;;17.57;59.09;100421.03;5050631;28;20474;-60
2022/08/30 04:53:50;;;;;;;3.70;2.13;;;;;;;17.57;59.39;100420.19;5050840;28;20048;-60
2022/08/30 04:56:23;;;;;;;5.55;1.92;;;;;;;17.55;59.58;100416.78;5050683;28;20045;-60
2022/08/30 04:58:53;;;;;;;3.45;2.30;;;;;;;17.55;59.44;100422.97;5050509;28;20123;-59
2022/08/30 05:01:23;;;;;;;3.75;2.08;;;;;;;17.54;59.56;100418.59;5049243;28;20575;-60
2022/08/30 05:03:51;;;;;;;5.28;2.13;;;;;;;17.54;59.45;100425.75;5049388;28;20048;-59
2022/08/30 05:06:19;;;;;;;3.22;1.88;;;;;;;17.53;59.41;100419.56;5050509;28;20091;-63
2022/08/30 05:08:46;;;;;;;2.85;1.80;;;;;;;17.53;59.55;100416.91;5049520;28;20044;-59
2022/08/30 05:11:14;;;;;;;3.38;2.30;;;;;;;17.51;59.63;100426.81;5050394;28;20501;-60
2022/08/30 05:13:42;;;;;;;2.22;2.00;;;;;;;17.51;59.63;100426.81;5049339;28;20135;-60
2022/08/30 05:16:09;;;;;;;4.38;2.03;;;;;;;17.52;59.74;100432.97;5050602;28;20055;-62
2022/08/30 05:18:36;;;;;;;3.78;2.33;;;;;;;17.52;59.67;100436.50;5050202;28;20049;-60
2022/08/30 05:21:09;;;;;;;4.93;2.10;;;;;;;17.51;60.29;100445.47;5050243;28;20045;-60
2022/08/30 05:23:37;;;;;;;5.03;2.10;;;;;;;17.55;59.95;100440.75;5054766;28;20049;-60
2022/08/30 05:26:17;;;;;;;3.33;1.90;;;;;;;17.52;60.40;100441.81;5054360;28;20103;-60
2022/08/30 05:28:45;;;;;;;5.85;2.13;;;;;;;17.56;59.97;100443.28;5053330;28;20053;-62
2022/08/30 05:31:22;;;;;;;4.50;2.30;;;;;;;17.57;60.47;100444.16;5053373;28;20114;-61
2022/08/30 05:33:51;;;;;;;3.50;2.25;;;;;;;17.60;60.09;100451.06;5053385;28;20044;-60
2022/08/30 05:36:19;;;;;;;2.63;2.25;;;;;;;17.60;59.71;100451.88;5053038;28;20045;-60
2022/08/30 05:38:46;;;;;;;6.72;2.20;;;;;;;17.61;60.04;100450.06;5054148;28;20036;-59
2022/08/30 05:41:13;;;;;;;5.13;2.08;;;;;;;17.62;59.86;100452.63;5054032;28;20051;-59
2022/08/30 05:43:40;;;;;;;4.03;2.30;;;;;;;17.63;59.90;100450.78;5054387;28;20079;-61
2022/08/30 05:46:13;;;;;;;3.60;2.30;;;;;;;17.63;60.36;100448.13;5054139;28;20052;-61
2022/08/30 05:48:40;;;;;;;3.67;2.28;;;;;;;17.65;60.03;100452.38;5053983;28;20106;-60
2022/08/30 05:51:08;;;;;;;3.45;2.28;;;;;;;17.66;59.99;100453.22;5052484;28;20060;-59
2022/08/30 05:53:35;;;;;;;3.28;2.35;;;;;;;17.66;59.90;100451.44;5054223;28;20060;-59
2022/08/30 05:56:04;;;;;;;2.78;2.20;;;;;;;17.66;60.14;100453.22;5054130;28;20423;-61
2022/08/30 05:58:31;;;;;;;2.90;2.25;;;;;;;17.65;60.14;100460.38;5052526;28;20059;-59
2022/08/30 06:00:59;;;;;;;2.97;2.38;;;;;;;17.66;60.24;100462.09;5053918;28;20057;-60
2022/08/30 06:03:26;;;;;;;4.85;2.70;;;;;;;17.67;60.39;100454.91;5052589;28;20041;-59
2022/08/30 06:05:54;;;;;;;5.28;2.50;;;;;;;17.67;60.41;100458.44;5052517;28;20048;-59
2022/08/30 06:08:20;;;;;;;3.28;2.40;;;;;;;17.69;60.50;100467.16;5053783;28;20053;-59
2022/08/30 06:10:47;;;;;;;5.45;2.35;;;;;;;17.70;60.16;100465.34;5053819;28;20061;-60
2022/08/30 06:13:14;;;;;;;3.90;2.70;;;;;;;17.72;60.51;100458.13;5053735;28;20052;-62
2022/08/30 06:15:44;;;;;;;2.88;2.67;;;;;;;17.74;60.54;100461.50;5053715;28;20429;-60
2022/08/30 06:18:12;;;;;;;4.30;2.30;;;;;;;17.75;60.34;100465.84;5052243;28;20053;-61
2022/08/30 06:20:41;;;;;;;6.47;2.80;;;;;;;17.78;60.57;100462.09;5053380;28;20049;-62
2022/08/30 06:23:09;;;;;;;4.43;2.40;;;;;;;17.80;60.43;100466.34;5053446;28;20057;-61
2022/08/30 06:25:37;;;;;;;5.53;2.80;;;;;;;17.83;60.68;100468.78;5052270;28;20477;-60
2022/08/30 06:28:08;;;;;;;2.35;2.00;;;;;;;17.88;60.72;100468.44;5053258;28;20079;-61
2022/08/30 06:30:37;;;;;;;3.95;2.30;;;;;;;17.90;60.67;100461.16;5052062;28;20139;-61
2022/08/30 06:33:04;;;;;;;2.22;2.03;;;;;;;17.92;60.32;100464.56;5052649;28;20505;-64
2022/08/30 06:35:31;;;;;;;2.95;2.30;;;;;;;17.96;60.67;100454.50;5053333;28;20080;-60
2022/08/30 06:38:07;;;;;;;2.72;2.38;;;;;;;17.98;60.52;100460.56;5051973;28;20049;-62
2022/08/30 06:40:35;;;;;;;6.28;2.75;;;;;;;18.00;60.32;100458.63;5053322;28;20155;-62
2022/08/30 06:43:02;;;;;;;2.65;2.28;;;;;;;18.04;60.42;100462.75;5053045;28;20045;-62
2022/08/30 06:45:29;;;;;;;3.90;2.45;;;;;;;18.08;60.57;100468.72;5052947;28;20576;-65
2022/08/30 06:47:57;;;;;;;8.77;3.22;;;;;;;18.12;60.53;100469.34;5053150;28;20056;-61
2022/08/30 06:50:30;;;;;;;4.88;2.50;;;;;;;18.16;60.22;100462.81;5051720;28;20610;-62
2022/08/30 06:53:03;;;;;;;3.90;2.28;;;;;;;18.20;60.42;100458.91;5052994;28;20063;-61
2022/08/30 06:55:32;;;;;;;4.40;2.47;;;;;;;18.23;60.33;100459.56;5051762;28;20052;-63
2022/08/30 06:58:02;;;;;;;6.13;2.40;;;;;;;18.26;60.80;100457.59;5052683;28;20048;-62
2022/08/30 07:00:29;;;;;;;3.60;2.45;;;;;;;18.29;60.24;100460.88;5052961;28;20051;-62
2022/08/30 07:02:56;;;;;;;3.92;2.08;;;;;;;18.33;60.41;100472.16;5052713;28;20059;-61
2022/08/30 07:05:23;;;;;;;3.30;2.30;;;;;;;18.35;60.41;100462.19;5051607;28;20100;-61
2022/08/30 07:07:53;;;;;;;10.43;2.42;;;;;;;18.40;60.38;100472.50;5052735;28;20199;-62
2022/08/30 07:10:20;;;;;;;3.67;2.60;;;;;;;18.43;60.16;100470.44;5051373;28;20063;-62
2022/08/30 07:12:47;;;;;;;7.15;2.30;;;;;;;18.48;60.20;100470.94;5052334;28;20059;-63
2022/08/30 07:15:15;;;;;;;5.75;2.28;;;;;;;18.54;60.30;100474.09;5052945;28;20052;-61
2022/08/30 07:20:27;;;;;;;2.55;1.88;;;;;;;18.64;59.88;100474.22;5052349;28;20130;-61
2022/08/30 07:23:06;;;;;;;2.85;2.08;;;;;;;18.69;60.31;100480.84;5052208;28;20421;-62
2022/08/30 07:25:35;;;;;;;10.25;3.05;;;;;;;18.73;60.54;100478.81;5051088;28;20060;-61
2022/08/30 07:28:03;;;;;;;5.72;2.20;;;;;;;18.80;60.07;100482.66;5052281;28;20058;-61
2022/08/30 07:30:30;;;;;;;4.75;2.00;;;;;;;18.86;60.11;100482.19;5052342;28;20052;-62
2022/08/30 07:32:57;;;;;;;2.97;1.77;;;;;;;18.92;59.97;100485.31;5052216;28;20277;-62
2022/08/30 07:35:24;;;;;;;6.40;1.80;;;;;;;18.98;60.05;100482.13;5052100;28;20405;-62
2022/08/30 07:37:50;;;;;;;4.55;1.80;;;;;;;19.04;59.59;100492.34;5052021;28;20056;-61
2022/08/30 07:40:17;;;;;;;5.78;1.70;;;;;;;19.10;59.34;100485.69;5050720;28;20045;-63
2022/08/30 07:42:44;;;;;;;6.13;2.15;;;;;;;19.16;59.46;100485.16;5051953;28;20080;-62
2022/08/30 07:45:11;;;;;;;3.85;1.70;;;;;;;19.21;59.47;100487.47;5051059;28;20049;-62
2022/08/30 07:47:38;;;;;;;2.88;1.67;;;;;;;19.26;58.96;100491.44;5051803;28;20084;-63
2022/08/30 07:50:06;;;;;;;3.55;1.90;;;;;;;19.33;58.89;100488.28;5051543;28;20049;-62
2022/08/30 07:52:33;;;;;;;3.30;1.90;;;;;;;19.38;58.90;100494.94;5051565;28;20059;-63
2022/08/30 07:55:00;;;;;;;3.08;1.75;;;;;;;19.45;58.98;100497.09;5050632;28;20052;-63
2022/08/30 07:57:30;;;;;;;4.88;2.30;;;;;;;19.51;58.59;100507.28;5051616;28;20053;-61
2022/08/30 07:59:56;;;;;;;6.20;2.10;;;;;;;19.56;58.57;100499.72;5051460;28;20049;-62
2022/08/30 08:02:23;;;;;;;2.85;2.03;;;;;;;19.63;58.45;100500.06;5050224;28;20098;-63
2022/08/30 08:04:50;;;;;;;3.22;1.90;;;;;;;19.69;58.41;100493.34;5051646;28;20088;-63
2022/08/30 08:07:17;;;;;;;2.85;1.80;;;;;;;19.73;58.00;100498.28;5051571;28;20065;-61
2022/08/30 08:09:43;;;;;;;3.40;1.58;;;;;;;19.79;57.98;100494.25;5051298;28;20064;-62
2022/08/30 08:12:10;;;;;;;3.55;1.65;;;;;;;19.86;58.10;100498.13;5051452;28;20045;-61
2022/08/30 08:14:37;;;;;;;7.03;1.75;;;;;;;19.92;57.57;100494.06;5051414;28;20048;-62
2022/08/30 08:17:03;;;;;;;3.28;1.67;;;;;;;19.97;57.56;100494.53;5051400;28;20064;-63
2022/08/30 08:19:30;;;;;;;4.55;1.50;;;;;;;20.02;57.58;100497.69;5051224;28;20052;-61
2022/08/30 08:21:59;;;;;;;3.00;1.85;;;;;;;20.07;57.55;100494.59;5051271;28;20053;-62
2022/08/30 08:24:45;;;;;;;2.15;1.35;;;;;;;20.17;57.03;100490.19;5051410;28;20056;-62
2022/08/30 08:27:12;;;;;;;3.75;1.38;;;;;;;20.24;57.01;100486.97;5051194;28;20049;-61
2022/08/30 08:29:39;;;;;;;3.22;1.50;;;;;;;20.29;57.21;100493.63;5050735;28;20063;-63
2022/08/30 08:32:05;;;;;;;2.15;1.30;;;;;;;20.37;57.15;100490.25;5051265;28;20505;-62
2022/08/30 08:34:34;;;;;;;2.00;1.20;;;;;;;20.46;56.99;100491.31;5049608;28;20041;-63
2022/08/30 08:37:01;;;;;;;4.68;1.90;;;;;;;20.55;57.17;100489.63;5051064;28;20063;-63
2022/08/30 08:39:27;;;;;;;4.25;1.20;;;;;;;20.64;56.70;100486.16;5050583;28;20045;-62
2022/08/30 08:41:54;;;;;;;4.63;1.30;;;;;;;20.74;56.39;100493.38;5050901;28;20441;-62
2022/08/30 08:44:35;;;;;;;3.90;1.60;;;;;;;20.79;55.90;100493.81;5050715;28;20100;-63
2022/08/30 08:47:12;;;;;;;1.85;1.10;;;;;;;20.88;55.45;100485.00;5051015;28;20072;-62
2022/08/30 08:49:43;;;;;;;3.47;1.40;;;;;;;20.98;55.49;100498.41;5050472;28;20118;-62
2022/08/30 08:55:11;;;;;;;2.30;1.40;;;;;;;21.15;55.35;100483.47;5050771;28;20067;-64
2022/08/30 08:57:38;;;;;;;1.55;1.00;;;;;;;21.24;55.40;100481.81;5049471;28;20045;-64
2022/08/30 09:00:10;;;;;;;2.00;1.40;;;;;;;21.32;54.52;100487.31;5050476;28;20045;-62
2022/08/30 09:02:58;;;;;;;1.88;1.30;;;;;;;21.38;54.41;100488.56;5049309;28;20048;-61
2022/08/30 09:05:30;;;;;;;5.25;1.30;;;;;;;21.52;54.64;100489.16;5049556;28;20040;-62
2022/08/30 09:08:01;;;;;;;1.98;1.10;;;;;;;21.59;54.23;100488.44;5049294;28;20053;-65
2022/08/30 09:10:34;;;;;;;3.50;1.00;;;;;;;21.68;54.38;100478.69;5049300;28;20041;-62
2022/08/30 09:13:15;;;;;;;3.58;0.90;;;;;;;21.79;54.09;100484.94;5049288;28;20055;-62
2022/08/30 09:15:45;;;;;;;3.63;1.10;;;;;;;21.89;53.89;100484.91;5050416;28;20049;-61
2022/08/30 09:18:17;;;;;;;1.45;1.00;;;;;;;21.97;53.79;100487.72;5050516;28;20056;-64
2022/08/30 09:21:06;;;;;;;1.98;1.20;;;;;;;22.06;53.30;100486.88;5050294;28;20052;-63
2022/08/30 09:23:33;;;;;;;1.23;0.82;;;;;;;22.16;53.62;100489.50;5049114;28;20056;-63
2022/08/30 09:26:08;;;;;;;2.25;0.88;;;;;;;22.23;53.25;100481.72;5050433;28;20053;-61
2022/08/30 09:28:48;;;;;;;1.77;0.95;;;;;;;22.33;52.89;100473.63;5049137;28;20060;-62
2022/08/30 09:31:21;;;;;;;1.50;1.27;;;;;;;22.47;53.09;100485.72;5050522;28;20045;-62
2022/08/30 09:34:00;;;;;;;3.90;1.30;;;;;;;22.58;51.91;100482.03;5050298;28;20056;-62
2022/08/30 09:36:31;;;;;;;3.88;1.00;;;;;;;22.71;52.12;100487.06;5050264;28;20056;-62
2022/08/30 09:39:06;;;;;;;1.10;0.90;;;;;;;22.78;51.73;100478.28;5050166;28;20059;-65
2022/08/30 09:41:42;;;;;;;1.50;0.80;;;;;;;22.87;50.84;100481.88;5050355;28;20049;-62
2022/08/30 09:44:23;;;;;;;2.42;1.08;;;;;;;22.98;51.32;100482.66;5048818;28;20057;-63
2022/08/30 09:46:51;;;;;;;1.15;1.02;;;;;;;23.04;51.16;100477.53;5050197;28;20060;-64
2022/08/30 09:49:36;;;;;;;1.83;1.17;;;;;;;23.12;51.28;100479.47;5049958;28;20052;-60
2022/08/30 09:52:35;;;;;;;2.97;1.10;;;;;;;23.23;51.26;100472.16;5050273;28;20052;-62
2022/08/30 09:55:02;;;;;;;0.88;0.80;;;;;;;23.37;50.63;100473.50;5043303;28;20602;-62
2022/08/30 09:57:29;;;;;;;1.67;0.93;;;;;;;23.46;50.63;100469.03;5050361;28;20056;-62
2022/08/30 10:00:14;;;;;;;1.38;0.90;;;;;;;23.52;51.10;100477.31;5050108;28;20076;-63
2022/08/30 10:02:53;;;;;;;1.75;0.80;;;;;;;23.64;49.43;100463.66;5048967;28;20554;-63
2022/08/30 10:05:26;;;;;;;1.65;0.80;;;;;;;23.72;49.99;100461.03;5049989;28;20131;-63
2022/08/30 10:08:16;;;;;;;1.70;1.10;;;;;;;23.81;48.81;100462.78;5049891;28;20501;-62
2022/08/30 10:11:00;;;;;;;1.15;0.70;;;;;;;23.90;49.22;100468.22;5053543;28;20433;-64
2022/08/30 10:13:41;;;;;;;2.08;0.80;;;;;;;23.99;48.82;100463.75;5052417;28;20045;-62
2022/08/30 10:16:19;;;;;;;3.70;1.40;;;;;;;24.07;49.95;100464.63;5053840;28;20088;-62
2022/08/30 10:18:55;;;;;;;2.67;0.98;;;;;;;24.20;49.62;100458.00;5053431;28;20082;-64
2022/08/30 10:21:37;;;;;;;4.05;1.60;;;;;;;24.30;48.38;100458.72;5052386;28;20139;-63
2022/08/30 10:24:11;;;;;;;1.63;0.90;;;;;;;24.46;49.41;100462.50;5052110;28;20049;-62
2022/08/30 10:26:53;;;;;;;1.83;1.10;;;;;;;24.58;48.65;100463.91;5053538;28;20088;-62
2022/08/30 10:29:30;;;;;;;4.50;0.95;;;;;;;24.69;47.98;100462.75;5053268;28;20076;-62
2022/08/30 10:32:18;;;;;;;2.80;0.90;;;;;;;24.78;48.04;100468.16;5052323;28;20060;-63
2022/08/30 10:34:55;;;;;;;1.98;0.85;;;;;;;24.90;47.63;100466.03;5053262;28;20053;-62
2022/08/30 10:37:27;;;;;;;4.57;0.93;;;;;;;25.00;46.91;100464.03;5053524;28;20156;-64
2022/08/30 10:41:11;;;;;;;2.10;1.15;;;;;;;25.07;47.09;100467.75;5051664;28;20064;-62
2022/08/30 10:42:57;;;;;;;1.63;1.02;;;;;;;25.20;47.19;100459.16;5052862;28;20131;-65
2022/08/30 10:45:27;;;;;;;2.30;1.15;;;;;;;25.32;47.61;100466.94;5052085;28;20045;-62
2022/08/30 10:48:16;;;;;;;2.20;1.08;;;;;;;25.38;47.31;100456.34;5051949;28;20071;-65
2022/08/30 10:50:52;;;;;;;1.13;0.95;;;;;;;25.56;46.40;100457.19;5051681;28;20045;-62
2022/08/30 10:53:32;;;;;;;1.60;0.77;;;;;;;25.69;46.30;100456.69;5051817;28;20059;-62
2022/08/30 10:56:07;;;;;;;2.33;0.85;;;;;;;25.84;46.27;100455.00;5053420;28;20083;-61
2022/08/30 10:58:37;;;;;;;0.98;0.68;;;;;;;26.01;45.17;100450.41;5051827;28;20048;-64
2022/08/30 11:01:14;;;;;;;2.78;0.90;;;;;;;26.20;45.60;100458.28;5053013;28;20088;-62
2022/08/30 11:04:20;;;;;;;2.90;0.80;;;;;;;26.41;45.38;100450.47;5051644;28;20075;-62
2022/08/30 11:07:31;;;;;;;0.90;0.85;;;;;;;26.80;46.63;100437.13;5052829;28;20056;-61
2022/08/30 11:10:07;;;;;;;0.95;0.80;;;;;;;27.29;45.26;100445.94;5043935;28;20080;-60
2022/08/30 11:13:02;;;;;;;2.35;0.77;;;;;;;27.81;44.79;100449.69;5053018;28;20055;-61
2022/08/30 11:15:50;;;;;;;1.13;0.82;;;;;;;28.41;44.25;100450.78;5052760;28;20472;-63
2022/08/30 11:18:18;;;;;;;1.35;0.85;;;;;;;29.03;44.73;100448.56;5052545;28;20048;-63
2022/08/30 11:20:48;;;;;;;5.63;1.13;;;;;;;29.63;43.71;100447.44;5051130;28;20382;-62
2022/08/30 11:23:25;;;;;;;0.93;0.65;;;;;;;30.23;42.30;100444.31;5051242;28;20458;-61
2022/08/30 11:26:00;;;;;;;1.15;0.90;;;;;;;30.83;40.27;100440.16;5051221;28;20059;-62
2022/08/30 11:28:34;;;;;;;1.20;0.60;;;;;;;31.36;39.47;100443.19;5052246;28;20508;-61
2022/08/30 11:31:08;;;;;;;;;;;;;;;31.77;43.22;100444.81;5053101;28;20045;-64
2022/08/30 11:33:42;;;;;;;0.70;0.57;;;;;;;32.32;38.80;100437.38;5052130;28;19932;-62
2022/08/30 11:36:34;;;;;;;5.28;0.93;;;;;;;32.74;38.85;100435.09;5052038;28;20064;-61
2022/08/30 11:39:08;;;;;;;0.77;0.73;;;;;;;33.18;37.68;100434.41;5051744;28;20059;-61
2022/08/30 11:41:37;;;;;;;9.40;1.20;;;;;;;33.54;35.56;100429.28;5050930;28;20052;-61
2022/08/30 11:44:23;;;;;;;2.88;1.23;;;;;;;33.90;34.60;100426.88;5051853;28;20092;-61
2022/08/30 11:46:53;;;;;;;1.00;0.40;;;;;;;34.25;35.05;100433.63;5051978;28;20057;-61
2022/08/30 11:49:20;;;;;;;3.22;0.90;;;;;;;34.55;34.41;100427.34;5051576;28;20053;-61